Hilversum, Netherlands
Current Conditions -  °F | °C
As of 1:55 PM on Thursday 30 Oct 2014 (Local Time) from EHAM Reporting Station
Haze Haze  
Wind Chill: 59°   Ceiling: Unl
Heat Index: 59°   Visibility: 2.5mi
Dew Point: 57°   Wind: 10mph
Humidity: 94%   Direction: 160°SSE
Pressure: 30.15"   Gusts: NA
Location:  52.23°N, 5.16°E
Report Text: EHAM 301255Z 16009KT 4000 BR FEW005 SCT006 15/14 Q1021 BECMG5000 TEMPO BKN006
Loading
Personal Weather Stations






























Interactive Weather Map
Tropical Storm Tracking
New forecast layout! Learn more

10-Day Weather Forecast

Advertisements
Track Severe Weather on mobile